sensor_id;sensor_type;location;lat;lon;timestamp;P1;durP1;ratioP1;P2;durP2;ratioP2
6017;SDS011;3037;51.068;13.780;2023-04-06T00:00:39;5.57;;;4.33;;
6017;SDS011;3037;51.068;13.780;2023-04-06T00:03:05;6.33;;;3.97;;
6017;SDS011;3037;51.068;13.780;2023-04-06T00:05:30;8.33;;;3.97;;
6017;SDS011;3037;51.068;13.780;2023-04-06T00:07:59;7.60;;;4.70;;
6017;SDS011;3037;51.068;13.780;2023-04-06T00:10:24;4.37;;;3.97;;
6017;SDS011;3037;51.068;13.780;2023-04-06T00:12:51;9.00;;;5.00;;
6017;SDS011;3037;51.068;13.780;2023-04-06T00:15:16;10.23;;;4.00;;
6017;SDS011;3037;51.068;13.780;2023-04-06T00:17:42;4.60;;;4.20;;
6017;SDS011;3037;51.068;13.780;2023-04-06T00:20:08;4.53;;;4.13;;
6017;SDS011;3037;51.068;13.780;2023-04-06T00:22:34;3.83;;;3.60;;
6017;SDS011;3037;51.068;13.780;2023-04-06T00:24:59;9.67;;;3.93;;
6017;SDS011;3037;51.068;13.780;2023-04-06T00:27:25;5.10;;;4.10;;
6017;SDS011;3037;51.068;13.780;2023-04-06T00:29:50;4.83;;;4.20;;
6017;SDS011;3037;51.068;13.780;2023-04-06T00:32:16;5.90;;;4.20;;
6017;SDS011;3037;51.068;13.780;2023-04-06T00:34:41;6.70;;;4.80;;
6017;SDS011;3037;51.068;13.780;2023-04-06T00:37:07;5.80;;;4.37;;
6017;SDS011;3037;51.068;13.780;2023-04-06T00:39:32;6.40;;;4.50;;
6017;SDS011;3037;51.068;13.780;2023-04-06T00:41:58;10.20;;;5.37;;
6017;SDS011;3037;51.068;13.780;2023-04-06T00:44:23;4.77;;;4.23;;
6017;SDS011;3037;51.068;13.780;2023-04-06T00:46:49;7.77;;;5.00;;
6017;SDS011;3037;51.068;13.780;2023-04-06T00:49:15;7.33;;;4.40;;
6017;SDS011;3037;51.068;13.780;2023-04-06T00:51:40;6.20;;;4.93;;
6017;SDS011;3037;51.068;13.780;2023-04-06T00:54:06;6.77;;;4.73;;
6017;SDS011;3037;51.068;13.780;2023-04-06T00:56:32;5.00;;;4.50;;
6017;SDS011;3037;51.068;13.780;2023-04-06T00:58:57;5.23;;;4.73;;
6017;SDS011;3037;51.068;13.780;2023-04-06T01:01:23;8.03;;;4.70;;
6017;SDS011;3037;51.068;13.780;2023-04-06T01:03:49;5.20;;;4.70;;
6017;SDS011;3037;51.068;13.780;2023-04-06T01:06:15;4.80;;;4.10;;
6017;SDS011;3037;51.068;13.780;2023-04-06T01:08:41;4.60;;;4.20;;
6017;SDS011;3037;51.068;13.780;2023-04-06T01:11:07;13.63;;;6.40;;
6017;SDS011;3037;51.068;13.780;2023-04-06T01:13:32;14.70;;;4.50;;
6017;SDS011;3037;51.068;13.780;2023-04-06T01:15:58;5.07;;;4.30;;
6017;SDS011;3037;51.068;13.780;2023-04-06T01:18:26;5.37;;;4.90;;
6017;SDS011;3037;51.068;13.780;2023-04-06T01:20:52;4.57;;;4.13;;
6017;SDS011;3037;51.068;13.780;2023-04-06T01:23:18;5.43;;;4.80;;
6017;SDS011;3037;51.068;13.780;2023-04-06T01:25:44;8.17;;;4.80;;
6017;SDS011;3037;51.068;13.780;2023-04-06T01:28:09;5.60;;;4.30;;
6017;SDS011;3037;51.068;13.780;2023-04-06T01:30:35;22.47;;;5.30;;
6017;SDS011;3037;51.068;13.780;2023-04-06T01:33:00;4.70;;;4.30;;
6017;SDS011;3037;51.068;13.780;2023-04-06T01:35:26;7.43;;;4.77;;
6017;SDS011;3037;51.068;13.780;2023-04-06T01:37:52;10.53;;;4.60;;
6017;SDS011;3037;51.068;13.780;2023-04-06T01:40:18;5.73;;;4.70;;
6017;SDS011;3037;51.068;13.780;2023-04-06T01:42:44;11.90;;;5.40;;
6017;SDS011;3037;51.068;13.780;2023-04-06T01:45:10;5.53;;;4.40;;
6017;SDS011;3037;51.068;13.780;2023-04-06T01:47:35;5.73;;;4.90;;
6017;SDS011;3037;51.068;13.780;2023-04-06T01:50:01;6.07;;;4.70;;
6017;SDS011;3037;51.068;13.780;2023-04-06T01:52:30;5.17;;;4.67;;
6017;SDS011;3037;51.068;13.780;2023-04-06T01:54:55;4.77;;;4.40;;
6017;SDS011;3037;51.068;13.780;2023-04-06T01:57:21;8.43;;;5.03;;
6017;SDS011;3037;51.068;13.780;2023-04-06T01:59:46;7.47;;;4.73;;
6017;SDS011;3037;51.068;13.780;2023-04-06T02:02:12;6.00;;;4.53;;
6017;SDS011;3037;51.068;13.780;2023-04-06T02:04:38;5.17;;;4.67;;
6017;SDS011;3037;51.068;13.780;2023-04-06T02:07:03;12.37;;;8.17;;
6017;SDS011;3037;51.068;13.780;2023-04-06T02:09:29;45.47;;;26.43;;
6017;SDS011;3037;51.068;13.780;2023-04-06T02:11:54;12.17;;;9.27;;
6017;SDS011;3037;51.068;13.780;2023-04-06T02:14:20;14.20;;;7.50;;
6017;SDS011;3037;51.068;13.780;2023-04-06T02:16:46;22.87;;;11.60;;
6017;SDS011;3037;51.068;13.780;2023-04-06T02:19:11;8.83;;;6.43;;
6017;SDS011;3037;51.068;13.780;2023-04-06T02:21:37;17.53;;;8.40;;
6017;SDS011;3037;51.068;13.780;2023-04-06T02:24:03;16.47;;;8.17;;
6017;SDS011;3037;51.068;13.780;2023-04-06T02:26:28;6.93;;;5.77;;
6017;SDS011;3037;51.068;13.780;2023-04-06T02:28:54;8.70;;;4.27;;
6017;SDS011;3037;51.068;13.780;2023-04-06T02:31:20;5.50;;;4.17;;
6017;SDS011;3037;51.068;13.780;2023-04-06T02:33:45;11.60;;;4.97;;
6017;SDS011;3037;51.068;13.780;2023-04-06T02:36:11;6.87;;;5.40;;
6017;SDS011;3037;51.068;13.780;2023-04-06T02:38:36;6.93;;;4.80;;
6017;SDS011;3037;51.068;13.780;2023-04-06T02:41:02;5.30;;;4.80;;
6017;SDS011;3037;51.068;13.780;2023-04-06T02:43:27;7.33;;;5.40;;
6017;SDS011;3037;51.068;13.780;2023-04-06T02:45:52;6.30;;;4.80;;
6017;SDS011;3037;51.068;13.780;2023-04-06T02:48:18;11.80;;;4.90;;
6017;SDS011;3037;51.068;13.780;2023-04-06T02:50:43;12.83;;;6.70;;
6017;SDS011;3037;51.068;13.780;2023-04-06T02:53:09;5.90;;;5.00;;
6017;SDS011;3037;51.068;13.780;2023-04-06T02:55:35;10.50;;;4.63;;
6017;SDS011;3037;51.068;13.780;2023-04-06T02:58:00;7.33;;;5.93;;
6017;SDS011;3037;51.068;13.780;2023-04-06T03:00:26;8.53;;;4.73;;
6017;SDS011;3037;51.068;13.780;2023-04-06T03:02:51;7.80;;;5.70;;
6017;SDS011;3037;51.068;13.780;2023-04-06T03:05:17;6.20;;;5.13;;
6017;SDS011;3037;51.068;13.780;2023-04-06T03:07:42;11.70;;;5.50;;
6017;SDS011;3037;51.068;13.780;2023-04-06T03:10:08;6.23;;;4.10;;
6017;SDS011;3037;51.068;13.780;2023-04-06T03:12:34;5.13;;;4.30;;
6017;SDS011;3037;51.068;13.780;2023-04-06T03:15:00;5.60;;;5.03;;
6017;SDS011;3037;51.068;13.780;2023-04-06T03:17:25;5.60;;;5.10;;
6017;SDS011;3037;51.068;13.780;2023-04-06T03:19:51;8.53;;;5.40;;
6017;SDS011;3037;51.068;13.780;2023-04-06T03:22:16;7.07;;;6.00;;
6017;SDS011;3037;51.068;13.780;2023-04-06T03:24:42;8.87;;;4.80;;
6017;SDS011;3037;51.068;13.780;2023-04-06T03:27:07;5.13;;;4.53;;
6017;SDS011;3037;51.068;13.780;2023-04-06T03:29:33;6.70;;;5.13;;
6017;SDS011;3037;51.068;13.780;2023-04-06T03:31:58;5.33;;;4.83;;
6017;SDS011;3037;51.068;13.780;2023-04-06T03:34:24;12.93;;;6.30;;
6017;SDS011;3037;51.068;13.780;2023-04-06T03:36:49;6.73;;;5.17;;
6017;SDS011;3037;51.068;13.780;2023-04-06T03:39:15;8.00;;;5.03;;
6017;SDS011;3037;51.068;13.780;2023-04-06T03:41:40;5.83;;;5.23;;
6017;SDS011;3037;51.068;13.780;2023-04-06T03:44:06;5.87;;;5.20;;
6017;SDS011;3037;51.068;13.780;2023-04-06T03:46:31;6.70;;;4.60;;
6017;SDS011;3037;51.068;13.780;2023-04-06T03:48:57;5.10;;;4.63;;
6017;SDS011;3037;51.068;13.780;2023-04-06T03:51:22;9.97;;;5.50;;
6017;SDS011;3037;51.068;13.780;2023-04-06T03:53:48;5.13;;;4.73;;
6017;SDS011;3037;51.068;13.780;2023-04-06T03:56:13;6.87;;;4.77;;
6017;SDS011;3037;51.068;13.780;2023-04-06T03:58:39;7.23;;;5.30;;
6017;SDS011;3037;51.068;13.780;2023-04-06T04:01:05;9.60;;;5.87;;
6017;SDS011;3037;51.068;13.780;2023-04-06T04:03:30;9.50;;;6.07;;
6017;SDS011;3037;51.068;13.780;2023-04-06T04:05:56;10.90;;;6.33;;
6017;SDS011;3037;51.068;13.780;2023-04-06T04:08:21;12.23;;;5.93;;
6017;SDS011;3037;51.068;13.780;2023-04-06T04:10:47;9.47;;;5.50;;
6017;SDS011;3037;51.068;13.780;2023-04-06T04:13:12;8.53;;;5.30;;
6017;SDS011;3037;51.068;13.780;2023-04-06T04:15:38;10.93;;;6.53;;
6017;SDS011;3037;51.068;13.780;2023-04-06T04:18:03;9.47;;;5.53;;
6017;SDS011;3037;51.068;13.780;2023-04-06T04:20:29;9.33;;;5.60;;
6017;SDS011;3037;51.068;13.780;2023-04-06T04:22:54;18.20;;;6.87;;
6017;SDS011;3037;51.068;13.780;2023-04-06T04:25:20;10.97;;;5.37;;
6017;SDS011;3037;51.068;13.780;2023-04-06T04:27:45;10.30;;;6.90;;
6017;SDS011;3037;51.068;13.780;2023-04-06T04:30:11;10.00;;;6.60;;
6017;SDS011;3037;51.068;13.780;2023-04-06T04:32:37;13.00;;;7.27;;
6017;SDS011;3037;51.068;13.780;2023-04-06T04:35:03;9.07;;;6.43;;
6017;SDS011;3037;51.068;13.780;2023-04-06T04:37:28;8.70;;;6.60;;
6017;SDS011;3037;51.068;13.780;2023-04-06T04:39:54;9.03;;;6.60;;
6017;SDS011;3037;51.068;13.780;2023-04-06T04:42:19;10.03;;;6.60;;
6017;SDS011;3037;51.068;13.780;2023-04-06T04:44:45;7.17;;;5.87;;
6017;SDS011;3037;51.068;13.780;2023-04-06T04:47:10;12.00;;;6.67;;
6017;SDS011;3037;51.068;13.780;2023-04-06T04:49:36;9.60;;;6.33;;
6017;SDS011;3037;51.068;13.780;2023-04-06T04:52:01;7.23;;;6.30;;
6017;SDS011;3037;51.068;13.780;2023-04-06T04:54:27;7.83;;;5.53;;
6017;SDS011;3037;51.068;13.780;2023-04-06T04:56:52;6.33;;;5.73;;
6017;SDS011;3037;51.068;13.780;2023-04-06T04:59:18;7.13;;;6.17;;
6017;SDS011;3037;51.068;13.780;2023-04-06T05:01:43;7.50;;;6.40;;
6017;SDS011;3037;51.068;13.780;2023-04-06T05:04:09;6.63;;;5.57;;
6017;SDS011;3037;51.068;13.780;2023-04-06T05:06:34;7.10;;;5.80;;
6017;SDS011;3037;51.068;13.780;2023-04-06T05:09:00;7.10;;;5.47;;
6017;SDS011;3037;51.068;13.780;2023-04-06T05:11:25;9.23;;;5.97;;
6017;SDS011;3037;51.068;13.780;2023-04-06T05:13:51;8.93;;;7.83;;
6017;SDS011;3037;51.068;13.780;2023-04-06T05:16:16;10.00;;;6.67;;
6017;SDS011;3037;51.068;13.780;2023-04-06T05:18:42;13.60;;;7.30;;
6017;SDS011;3037;51.068;13.780;2023-04-06T05:21:07;9.27;;;7.17;;
6017;SDS011;3037;51.068;13.780;2023-04-06T05:23:35;6.97;;;6.13;;
6017;SDS011;3037;51.068;13.780;2023-04-06T05:26:00;16.40;;;6.63;;
6017;SDS011;3037;51.068;13.780;2023-04-06T05:28:26;10.67;;;6.20;;
6017;SDS011;3037;51.068;13.780;2023-04-06T05:30:52;8.60;;;6.90;;
6017;SDS011;3037;51.068;13.780;2023-04-06T05:33:18;11.13;;;7.70;;
6017;SDS011;3037;51.068;13.780;2023-04-06T05:35:43;11.10;;;6.53;;
6017;SDS011;3037;51.068;13.780;2023-04-06T05:38:09;9.50;;;6.80;;
6017;SDS011;3037;51.068;13.780;2023-04-06T05:40:35;11.67;;;5.93;;
6017;SDS011;3037;51.068;13.780;2023-04-06T05:43:02;16.70;;;7.60;;
6017;SDS011;3037;51.068;13.780;2023-04-06T05:45:28;11.80;;;6.60;;
6017;SDS011;3037;51.068;13.780;2023-04-06T05:47:54;8.13;;;7.00;;
6017;SDS011;3037;51.068;13.780;2023-04-06T05:50:19;7.67;;;6.13;;
6017;SDS011;3037;51.068;13.780;2023-04-06T05:52:45;8.43;;;6.43;;
6017;SDS011;3037;51.068;13.780;2023-04-06T05:55:11;17.20;;;7.40;;
6017;SDS011;3037;51.068;13.780;2023-04-06T05:57:37;8.97;;;6.60;;
6017;SDS011;3037;51.068;13.780;2023-04-06T06:00:03;9.63;;;6.80;;
6017;SDS011;3037;51.068;13.780;2023-04-06T06:02:31;10.30;;;5.80;;
6017;SDS011;3037;51.068;13.780;2023-04-06T06:04:57;11.27;;;6.50;;
6017;SDS011;3037;51.068;13.780;2023-04-06T06:07:23;9.53;;;6.57;;
6017;SDS011;3037;51.068;13.780;2023-04-06T06:09:48;13.17;;;6.80;;
6017;SDS011;3037;51.068;13.780;2023-04-06T06:12:14;8.23;;;6.37;;
6017;SDS011;3037;51.068;13.780;2023-04-06T06:14:39;6.23;;;5.40;;
6017;SDS011;3037;51.068;13.780;2023-04-06T06:17:05;10.57;;;7.23;;
6017;SDS011;3037;51.068;13.780;2023-04-06T06:19:30;11.40;;;5.93;;
6017;SDS011;3037;51.068;13.780;2023-04-06T06:21:56;9.33;;;5.50;;
6017;SDS011;3037;51.068;13.780;2023-04-06T06:24:22;7.20;;;5.73;;
6017;SDS011;3037;51.068;13.780;2023-04-06T06:26:47;8.53;;;5.40;;
6017;SDS011;3037;51.068;13.780;2023-04-06T06:29:14;13.70;;;6.33;;
6017;SDS011;3037;51.068;13.780;2023-04-06T06:31:39;9.00;;;6.23;;
6017;SDS011;3037;51.068;13.780;2023-04-06T06:34:05;9.23;;;6.00;;
6017;SDS011;3037;51.068;13.780;2023-04-06T06:36:31;7.70;;;5.83;;
6017;SDS011;3037;51.068;13.780;2023-04-06T06:38:57;9.90;;;5.43;;
6017;SDS011;3037;51.068;13.780;2023-04-06T06:41:23;9.33;;;6.50;;
6017;SDS011;3037;51.068;13.780;2023-04-06T06:43:51;7.43;;;5.03;;
6017;SDS011;3037;51.068;13.780;2023-04-06T06:46:16;11.87;;;5.73;;
6017;SDS011;3037;51.068;13.780;2023-04-06T06:48:42;6.00;;;5.03;;
6017;SDS011;3037;51.068;13.780;2023-04-06T06:51:08;8.10;;;5.60;;
6017;SDS011;3037;51.068;13.780;2023-04-06T06:53:34;9.77;;;5.67;;
6017;SDS011;3037;51.068;13.780;2023-04-06T06:56:00;11.90;;;6.10;;
6017;SDS011;3037;51.068;13.780;2023-04-06T06:58:25;5.93;;;5.33;;
6017;SDS011;3037;51.068;13.780;2023-04-06T07:00:55;10.37;;;5.50;;
6017;SDS011;3037;51.068;13.780;2023-04-06T07:03:24;10.40;;;5.40;;
6017;SDS011;3037;51.068;13.780;2023-04-06T07:05:50;8.87;;;6.50;;
6017;SDS011;3037;51.068;13.780;2023-04-06T07:08:19;9.83;;;5.70;;
6017;SDS011;3037;51.068;13.780;2023-04-06T07:10:45;7.70;;;5.80;;
6017;SDS011;3037;51.068;13.780;2023-04-06T07:13:10;7.80;;;5.50;;
6017;SDS011;3037;51.068;13.780;2023-04-06T07:15:37;6.80;;;5.63;;
6017;SDS011;3037;51.068;13.780;2023-04-06T07:18:02;6.67;;;5.20;;
6017;SDS011;3037;51.068;13.780;2023-04-06T07:20:28;5.87;;;5.30;;
6017;SDS011;3037;51.068;13.780;2023-04-06T07:22:53;8.53;;;5.87;;
6017;SDS011;3037;51.068;13.780;2023-04-06T07:25:19;13.27;;;6.50;;
6017;SDS011;3037;51.068;13.780;2023-04-06T07:27:45;6.70;;;5.37;;
6017;SDS011;3037;51.068;13.780;2023-04-06T07:30:11;5.77;;;5.20;;
6017;SDS011;3037;51.068;13.780;2023-04-06T07:32:36;8.50;;;5.33;;
6017;SDS011;3037;51.068;13.780;2023-04-06T07:35:02;7.83;;;5.90;;
6017;SDS011;3037;51.068;13.780;2023-04-06T07:37:28;7.83;;;5.87;;
6017;SDS011;3037;51.068;13.780;2023-04-06T07:39:53;8.10;;;5.57;;
6017;SDS011;3037;51.068;13.780;2023-04-06T07:42:19;9.10;;;5.77;;
6017;SDS011;3037;51.068;13.780;2023-04-06T07:44:45;8.43;;;5.70;;
6017;SDS011;3037;51.068;13.780;2023-04-06T07:47:10;6.90;;;5.50;;
6017;SDS011;3037;51.068;13.780;2023-04-06T07:49:36;11.33;;;5.57;;
6017;SDS011;3037;51.068;13.780;2023-04-06T07:52:02;18.23;;;5.73;;
6017;SDS011;3037;51.068;13.780;2023-04-06T07:54:28;6.80;;;5.00;;
6017;SDS011;3037;51.068;13.780;2023-04-06T07:56:53;10.60;;;5.20;;
6017;SDS011;3037;51.068;13.780;2023-04-06T07:59:19;7.33;;;5.77;;
6017;SDS011;3037;51.068;13.780;2023-04-06T08:01:45;14.70;;;5.87;;
6017;SDS011;3037;51.068;13.780;2023-04-06T08:04:10;9.37;;;5.90;;
6017;SDS011;3037;51.068;13.780;2023-04-06T08:06:36;8.57;;;5.80;;
6017;SDS011;3037;51.068;13.780;2023-04-06T08:09:02;7.80;;;5.47;;
6017;SDS011;3037;51.068;13.780;2023-04-06T08:11:28;7.80;;;5.30;;
6017;SDS011;3037;51.068;13.780;2023-04-06T08:13:54;11.70;;;5.30;;
6017;SDS011;3037;51.068;13.780;2023-04-06T08:16:21;6.60;;;5.30;;
6017;SDS011;3037;51.068;13.780;2023-04-06T08:18:47;7.00;;;5.20;;
6017;SDS011;3037;51.068;13.780;2023-04-06T08:21:12;9.10;;;5.63;;
6017;SDS011;3037;51.068;13.780;2023-04-06T08:23:38;9.87;;;4.60;;
6017;SDS011;3037;51.068;13.780;2023-04-06T08:26:04;17.83;;;7.67;;
6017;SDS011;3037;51.068;13.780;2023-04-06T08:28:29;16.17;;;7.10;;
6017;SDS011;3037;51.068;13.780;2023-04-06T08:30:55;13.70;;;4.43;;
6017;SDS011;3037;51.068;13.780;2023-04-06T08:35:51;5.50;;;5.00;;
6017;SDS011;3037;51.068;13.780;2023-04-06T08:38:17;6.10;;;4.90;;
6017;SDS011;3037;51.068;13.780;2023-04-06T08:40:42;10.87;;;5.23;;
6017;SDS011;3037;51.068;13.780;2023-04-06T08:43:09;4.60;;;4.10;;
6017;SDS011;3037;51.068;13.780;2023-04-06T08:45:41;6.77;;;4.90;;
6017;SDS011;3037;51.068;13.780;2023-04-06T08:48:07;9.87;;;5.40;;
6017;SDS011;3037;51.068;13.780;2023-04-06T08:50:34;5.90;;;5.30;;
6017;SDS011;3037;51.068;13.780;2023-04-06T08:53:00;7.27;;;5.50;;
6017;SDS011;3037;51.068;13.780;2023-04-06T08:55:26;6.23;;;4.23;;
6017;SDS011;3037;51.068;13.780;2023-04-06T08:57:52;10.60;;;4.00;;
6017;SDS011;3037;51.068;13.780;2023-04-06T09:00:19;4.33;;;3.33;;
6017;SDS011;3037;51.068;13.780;2023-04-06T09:02:45;3.90;;;3.60;;
6017;SDS011;3037;51.068;13.780;2023-04-06T09:05:11;4.77;;;4.47;;
6017;SDS011;3037;51.068;13.780;2023-04-06T09:07:37;4.50;;;4.10;;
6017;SDS011;3037;51.068;13.780;2023-04-06T09:10:06;5.80;;;4.10;;
6017;SDS011;3037;51.068;13.780;2023-04-06T09:12:32;4.87;;;4.20;;
6017;SDS011;3037;51.068;13.780;2023-04-06T09:14:58;4.90;;;4.40;;
6017;SDS011;3037;51.068;13.780;2023-04-06T09:17:25;4.73;;;4.20;;
6017;SDS011;3037;51.068;13.780;2023-04-06T09:19:57;3.83;;;3.63;;
6017;SDS011;3037;51.068;13.780;2023-04-06T09:22:23;6.20;;;3.37;;
6017;SDS011;3037;51.068;13.780;2023-04-06T09:24:51;3.70;;;3.33;;
6017;SDS011;3037;51.068;13.780;2023-04-06T09:27:18;3.93;;;3.13;;
6017;SDS011;3037;51.068;13.780;2023-04-06T09:30:02;3.57;;;3.37;;
6017;SDS011;3037;51.068;13.780;2023-04-06T09:32:29;4.77;;;3.40;;
6017;SDS011;3037;51.068;13.780;2023-04-06T09:35:05;4.10;;;3.80;;
6017;SDS011;3037;51.068;13.780;2023-04-06T09:37:31;3.63;;;3.10;;
6017;SDS011;3037;51.068;13.780;2023-04-06T09:40:06;4.20;;;3.90;;
6017;SDS011;3037;51.068;13.780;2023-04-06T09:42:32;3.90;;;3.17;;
6017;SDS011;3037;51.068;13.780;2023-04-06T09:44:59;6.70;;;4.20;;
6017;SDS011;3037;51.068;13.780;2023-04-06T09:47:25;3.43;;;3.23;;
6017;SDS011;3037;51.068;13.780;2023-04-06T09:49:55;3.80;;;3.50;;
6017;SDS011;3037;51.068;13.780;2023-04-06T09:52:24;3.90;;;3.60;;
6017;SDS011;3037;51.068;13.780;2023-04-06T09:54:52;3.60;;;3.30;;
6017;SDS011;3037;51.068;13.780;2023-04-06T10:00:17;3.10;;;2.90;;
6017;SDS011;3037;51.068;13.780;2023-04-06T10:02:57;5.07;;;3.80;;
6017;SDS011;3037;51.068;13.780;2023-04-06T10:05:41;3.57;;;3.30;;
6017;SDS011;3037;51.068;13.780;2023-04-06T10:08:10;3.30;;;3.10;;
6017;SDS011;3037;51.068;13.780;2023-04-06T10:10:36;4.03;;;3.63;;
6017;SDS011;3037;51.068;13.780;2023-04-06T10:13:03;8.50;;;4.10;;
6017;SDS011;3037;51.068;13.780;2023-04-06T10:15:29;8.70;;;4.00;;
6017;SDS011;3037;51.068;13.780;2023-04-06T10:17:56;4.80;;;4.10;;
6017;SDS011;3037;51.068;13.780;2023-04-06T10:20:31;4.13;;;3.43;;
6017;SDS011;3037;51.068;13.780;2023-04-06T10:23:13;3.33;;;3.03;;
6017;SDS011;3037;51.068;13.780;2023-04-06T10:25:55;5.57;;;3.00;;
6017;SDS011;3037;51.068;13.780;2023-04-06T10:28:22;3.43;;;3.17;;
6017;SDS011;3037;51.068;13.780;2023-04-06T10:30:48;3.40;;;3.17;;
6017;SDS011;3037;51.068;13.780;2023-04-06T10:33:21;2.93;;;2.50;;
6017;SDS011;3037;51.068;13.780;2023-04-06T10:35:46;5.83;;;3.13;;
6017;SDS011;3037;51.068;13.780;2023-04-06T10:38:12;4.97;;;2.70;;
6017;SDS011;3037;51.068;13.780;2023-04-06T10:40:45;3.27;;;2.43;;
6017;SDS011;3037;51.068;13.780;2023-04-06T10:43:18;3.87;;;2.83;;
6017;SDS011;3037;51.068;13.780;2023-04-06T10:45:45;2.50;;;2.40;;
6017;SDS011;3037;51.068;13.780;2023-04-06T10:48:20;5.00;;;3.17;;
6017;SDS011;3037;51.068;13.780;2023-04-06T10:50:47;3.03;;;2.77;;
6017;SDS011;3037;51.068;13.780;2023-04-06T10:53:20;6.00;;;2.70;;
6017;SDS011;3037;51.068;13.780;2023-04-06T10:55:51;3.13;;;2.87;;
6017;SDS011;3037;51.068;13.780;2023-04-06T10:58:17;4.43;;;2.70;;
6017;SDS011;3037;51.068;13.780;2023-04-06T11:00:44;3.27;;;3.07;;
6017;SDS011;3037;51.068;13.780;2023-04-06T11:03:11;3.60;;;3.23;;
6017;SDS011;3037;51.068;13.780;2023-04-06T11:05:36;5.23;;;3.50;;
6017;SDS011;3037;51.068;13.780;2023-04-06T11:08:02;4.07;;;3.00;;
6017;SDS011;3037;51.068;13.780;2023-04-06T11:10:27;4.67;;;3.60;;
6017;SDS011;3037;51.068;13.780;2023-04-06T11:12:55;3.63;;;2.90;;
6017;SDS011;3037;51.068;13.780;2023-04-06T11:15:21;4.57;;;2.90;;
6017;SDS011;3037;51.068;13.780;2023-04-06T11:17:47;3.80;;;2.90;;
6017;SDS011;3037;51.068;13.780;2023-04-06T11:20:14;3.33;;;3.13;;
6017;SDS011;3037;51.068;13.780;2023-04-06T11:22:49;4.30;;;3.30;;
6017;SDS011;3037;51.068;13.780;2023-04-06T11:25:18;2.77;;;2.67;;
6017;SDS011;3037;51.068;13.780;2023-04-06T11:27:44;3.60;;;3.40;;
6017;SDS011;3037;51.068;13.780;2023-04-06T11:30:11;4.13;;;3.57;;
6017;SDS011;3037;51.068;13.780;2023-04-06T11:32:41;4.60;;;2.93;;
6017;SDS011;3037;51.068;13.780;2023-04-06T11:35:10;3.10;;;2.90;;
6017;SDS011;3037;51.068;13.780;2023-04-06T11:37:46;3.30;;;3.00;;
6017;SDS011;3037;51.068;13.780;2023-04-06T11:40:11;5.87;;;3.40;;
6017;SDS011;3037;51.068;13.780;2023-04-06T11:42:37;3.63;;;2.93;;
6017;SDS011;3037;51.068;13.780;2023-04-06T11:45:02;5.90;;;3.27;;
6017;SDS011;3037;51.068;13.780;2023-04-06T11:47:29;3.53;;;3.23;;
6017;SDS011;3037;51.068;13.780;2023-04-06T11:50:05;4.63;;;2.90;;
6017;SDS011;3037;51.068;13.780;2023-04-06T11:52:38;3.63;;;3.33;;
6017;SDS011;3037;51.068;13.780;2023-04-06T11:55:14;7.60;;;3.93;;
6017;SDS011;3037;51.068;13.780;2023-04-06T11:57:40;4.37;;;3.13;;
6017;SDS011;3037;51.068;13.780;2023-04-06T12:00:07;3.27;;;3.00;;
6017;SDS011;3037;51.068;13.780;2023-04-06T12:02:34;5.63;;;3.27;;
6017;SDS011;3037;51.068;13.780;2023-04-06T12:05:01;2.80;;;2.60;;
6017;SDS011;3037;51.068;13.780;2023-04-06T12:07:26;5.23;;;3.50;;
6017;SDS011;3037;51.068;13.780;2023-04-06T12:09:53;4.33;;;3.20;;
6017;SDS011;3037;51.068;13.780;2023-04-06T12:12:18;8.03;;;3.73;;
6017;SDS011;3037;51.068;13.780;2023-04-06T12:14:44;8.33;;;3.47;;
6017;SDS011;3037;51.068;13.780;2023-04-06T12:17:10;8.20;;;3.47;;
6017;SDS011;3037;51.068;13.780;2023-04-06T12:19:35;4.90;;;3.70;;
6017;SDS011;3037;51.068;13.780;2023-04-06T12:22:00;3.30;;;3.17;;
6017;SDS011;3037;51.068;13.780;2023-04-06T12:24:27;3.60;;;3.20;;
6017;SDS011;3037;51.068;13.780;2023-04-06T12:26:53;5.30;;;3.40;;
6017;SDS011;3037;51.068;13.780;2023-04-06T12:29:19;3.70;;;3.43;;
6017;SDS011;3037;51.068;13.780;2023-04-06T12:31:44;6.20;;;3.43;;
6017;SDS011;3037;51.068;13.780;2023-04-06T12:34:10;4.20;;;3.00;;
6017;SDS011;3037;51.068;13.780;2023-04-06T12:36:36;3.33;;;3.00;;
6017;SDS011;3037;51.068;13.780;2023-04-06T12:39:03;3.37;;;3.07;;
6017;SDS011;3037;51.068;13.780;2023-04-06T12:41:28;3.37;;;3.13;;
6017;SDS011;3037;51.068;13.780;2023-04-06T12:43:54;6.97;;;4.00;;
6017;SDS011;3037;51.068;13.780;2023-04-06T12:46:20;4.47;;;3.43;;
6017;SDS011;3037;51.068;13.780;2023-04-06T12:48:46;3.30;;;3.20;;
6017;SDS011;3037;51.068;13.780;2023-04-06T12:51:12;3.20;;;2.80;;
6017;SDS011;3037;51.068;13.780;2023-04-06T12:53:38;2.97;;;2.77;;
6017;SDS011;3037;51.068;13.780;2023-04-06T12:56:10;7.03;;;4.07;;
6017;SDS011;3037;51.068;13.780;2023-04-06T12:58:40;3.20;;;3.00;;
6017;SDS011;3037;51.068;13.780;2023-04-06T13:01:06;4.70;;;4.23;;
6017;SDS011;3037;51.068;13.780;2023-04-06T13:03:32;4.13;;;3.83;;
6017;SDS011;3037;51.068;13.780;2023-04-06T13:05:59;3.27;;;2.97;;
6017;SDS011;3037;51.068;13.780;2023-04-06T13:08:25;6.93;;;3.37;;
6017;SDS011;3037;51.068;13.780;2023-04-06T13:10:52;4.47;;;3.37;;
6017;SDS011;3037;51.068;13.780;2023-04-06T13:13:22;5.40;;;3.97;;
6017;SDS011;3037;51.068;13.780;2023-04-06T13:15:50;5.03;;;2.80;;
6017;SDS011;3037;51.068;13.780;2023-04-06T13:18:16;4.70;;;2.93;;
6017;SDS011;3037;51.068;13.780;2023-04-06T13:20:41;5.50;;;3.27;;
6017;SDS011;3037;51.068;13.780;2023-04-06T13:23:07;3.90;;;3.43;;
6017;SDS011;3037;51.068;13.780;2023-04-06T13:25:33;3.40;;;3.03;;
6017;SDS011;3037;51.068;13.780;2023-04-06T13:27:58;4.00;;;3.73;;
6017;SDS011;3037;51.068;13.780;2023-04-06T13:30:24;3.20;;;3.00;;
6017;SDS011;3037;51.068;13.780;2023-04-06T13:32:50;4.10;;;2.80;;
6017;SDS011;3037;51.068;13.780;2023-04-06T13:35:16;3.50;;;3.00;;
6017;SDS011;3037;51.068;13.780;2023-04-06T13:37:43;3.67;;;3.27;;
6017;SDS011;3037;51.068;13.780;2023-04-06T13:40:09;4.63;;;3.37;;
6017;SDS011;3037;51.068;13.780;2023-04-06T13:42:35;6.73;;;3.17;;
6017;SDS011;3037;51.068;13.780;2023-04-06T13:45:01;3.50;;;3.20;;
6017;SDS011;3037;51.068;13.780;2023-04-06T13:47:26;3.07;;;2.97;;
6017;SDS011;3037;51.068;13.780;2023-04-06T13:49:52;3.77;;;3.30;;
6017;SDS011;3037;51.068;13.780;2023-04-06T13:52:18;4.27;;;3.30;;
6017;SDS011;3037;51.068;13.780;2023-04-06T13:54:44;3.37;;;3.17;;
6017;SDS011;3037;51.068;13.780;2023-04-06T13:57:10;4.83;;;3.83;;
6017;SDS011;3037;51.068;13.780;2023-04-06T13:59:36;4.10;;;3.20;;
6017;SDS011;3037;51.068;13.780;2023-04-06T14:02:03;3.63;;;3.20;;
6017;SDS011;3037;51.068;13.780;2023-04-06T14:04:30;3.13;;;2.90;;
6017;SDS011;3037;51.068;13.780;2023-04-06T14:06:56;2.87;;;2.67;;
6017;SDS011;3037;51.068;13.780;2023-04-06T14:09:22;3.60;;;3.30;;
6017;SDS011;3037;51.068;13.780;2023-04-06T14:11:48;4.40;;;4.00;;
6017;SDS011;3037;51.068;13.780;2023-04-06T14:14:14;7.17;;;3.50;;
6017;SDS011;3037;51.068;13.780;2023-04-06T14:16:40;3.50;;;3.20;;
6017;SDS011;3037;51.068;13.780;2023-04-06T14:19:08;9.20;;;3.07;;
6017;SDS011;3037;51.068;13.780;2023-04-06T14:21:37;6.60;;;3.53;;
6017;SDS011;3037;51.068;13.780;2023-04-06T14:24:06;3.23;;;3.10;;
6017;SDS011;3037;51.068;13.780;2023-04-06T14:26:32;4.70;;;3.20;;
6017;SDS011;3037;51.068;13.780;2023-04-06T14:29:01;4.13;;;3.20;;
6017;SDS011;3037;51.068;13.780;2023-04-06T14:31:27;3.10;;;2.87;;
6017;SDS011;3037;51.068;13.780;2023-04-06T14:33:53;12.63;;;3.20;;
6017;SDS011;3037;51.068;13.780;2023-04-06T14:36:19;2.77;;;2.57;;
6017;SDS011;3037;51.068;13.780;2023-04-06T14:38:45;2.73;;;2.57;;
6017;SDS011;3037;51.068;13.780;2023-04-06T14:41:16;3.47;;;3.27;;
6017;SDS011;3037;51.068;13.780;2023-04-06T14:43:43;3.50;;;3.20;;
6017;SDS011;3037;51.068;13.780;2023-04-06T14:46:09;3.90;;;3.60;;
6017;SDS011;3037;51.068;13.780;2023-04-06T14:48:35;3.83;;;3.50;;
6017;SDS011;3037;51.068;13.780;2023-04-06T14:51:01;7.03;;;3.60;;
6017;SDS011;3037;51.068;13.780;2023-04-06T14:53:27;3.33;;;2.93;;
6017;SDS011;3037;51.068;13.780;2023-04-06T14:55:53;14.10;;;3.40;;
6017;SDS011;3037;51.068;13.780;2023-04-06T14:58:19;3.60;;;3.20;;